Aérodrome :
LOGIN :

S'inscrire | Disclaimer

   EN    FR    IT 

 










Légende :    VFR   VFR Marginal   IFR   IFR Intensif   IFR Très Intensif
Visi : 
Plafond : 
>= 8 km
>= 3000ft
5 à 8 km
1000 à 3000 ft
1500m à 5 km
500 à 1000 ft
800 à 1500m
200 à 500 ft
< 800m
< 200 ft
Symboles :   Orages  Brouillard  Fortes neiges  Fortes précipitations  Vent > 20 kt
SIGMETs :   Divers  Orages  Givrage  Turbulence  Onde Orograph.  Cendres Volcan.







- Altitude de l'aérodrome : 3006 ft
- Code IATA : LEN


LELN - Leon

DERNIER METAR :
  • 190800Z VRB02KT 9999 OVC009 01/01 Q1020

METARs EXPIRÉS :
  • 190730Z 35002KT 9999 BKN008 02/02 Q1019
  • 190700Z VRB01KT 9999 OVC009 01/01 Q1019
  • 190630Z AUTO 34003KT 9999 OVC009/// 01/01 Q1019
  • 190600Z AUTO VRB02KT 9999 OVC011/// 01/01 Q1019
  • 190530Z AUTO 34005KT 9000 BKN015/// 00/00 Q1019

TAF TAF LELN
Valide du 19 à 06h jusqu'au 19 à 15h UTC


190500Z 1906/1915 VRB05KT 9999 BKN030
PROB40
TEMPO 1906/1910 BKN006
Pas de NOTAMs connus pour ce terrain.
2 SIGMETs publiés pour la FIR Madrid (LECM) :
 
Turbulence forte
LECM SIGMET 2 VALID 190800/191200 LEVA
LECM MADRID FIR/UIR SEV TURB FCST WI N4414 W00342 - N3710 W00740 - N3556 W00727 - N3553 W00620 - N4258 W00119 - N4414 W00342 FL180/300 MOV E 5KT NC=
Turbulence forte
LECM SIGMET 1 VALID 190400/190800 LEVA
LECM MADRID FIR/UIR SEV TURB FCST WI N4410 W00339 - N4002 W00653 - N3708 W00723 - N3626 W00625 - N4326 W00143 - N4410 W00339 FL180/300 MOV E 20KT NC=



MET'MAP, la Météo Aéronautique d'un coup d'oeil ! - Copyright ORBIFLY Décembre 2007 - Disclaimer

ORBIFLY MET'MAP TEAM :

Programmation & Développement : Alexandra Zaïnal
Conception & Développement : Baudouin d'Aumeries
Co-Programmation & Développement : Marc-Olivier Méhu
Soutien technique & logistique : Manuel Goepfert

Contact : metmap@orbifly.com




SOURCES & CREDITS :

   NOAA